createdAt,value
2022-12-27T00:00:00.610Z,4
2022-12-27T00:05:00.555Z,4
2022-12-27T00:10:00.603Z,4
2022-12-27T00:15:00.588Z,5
2022-12-27T00:20:04.148Z,5
2022-12-27T00:25:00.539Z,5
2022-12-27T00:30:00.577Z,4
2022-12-27T00:35:00.537Z,4
2022-12-27T00:40:00.576Z,4
2022-12-27T00:45:00.560Z,4
2022-12-27T00:50:00.551Z,4
2022-12-27T00:55:00.557Z,4
2022-12-27T01:00:04.791Z,5
2022-12-27T01:05:00.542Z,6
2022-12-27T01:10:00.577Z,3
2022-12-27T01:15:00.546Z,4
2022-12-27T01:20:00.580Z,5
2022-12-27T01:25:00.540Z,4
2022-12-27T01:30:00.594Z,4
2022-12-27T01:35:00.567Z,5
2022-12-27T01:40:00.577Z,5
2022-12-27T01:45:00.548Z,5
2022-12-27T01:50:00.587Z,4
2022-12-27T01:55:00.543Z,5
2022-12-27T02:00:00.583Z,5
2022-12-27T02:05:00.581Z,5
2022-12-27T02:10:00.581Z,5
2022-12-27T02:15:00.534Z,5
2022-12-27T02:20:00.580Z,5
2022-12-27T02:25:00.587Z,6
2022-12-27T02:30:00.728Z,5
2022-12-27T02:35:00.564Z,6
2022-12-27T02:40:00.590Z,5
2022-12-27T02:45:00.585Z,5
2022-12-27T02:50:00.575Z,5
2022-12-27T02:55:00.532Z,6
2022-12-27T03:00:00.595Z,4
2022-12-27T03:05:00.574Z,5
2022-12-27T03:10:00.597Z,6
2022-12-27T03:15:00.543Z,5
2022-12-27T03:20:00.654Z,4
2022-12-27T03:25:00.539Z,5
2022-12-27T03:30:00.580Z,5
2022-12-27T03:35:00.568Z,4
2022-12-27T03:40:00.554Z,5
2022-12-27T03:45:00.551Z,5
2022-12-27T03:50:00.592Z,6
2022-12-27T03:55:00.537Z,5
2022-12-27T04:00:00.545Z,5
2022-12-27T04:05:00.557Z,4
2022-12-27T04:10:00.580Z,4
2022-12-27T04:15:00.535Z,4
2022-12-27T04:20:00.559Z,4
2022-12-27T04:25:00.544Z,3
2022-12-27T04:30:00.576Z,5
2022-12-27T04:35:00.576Z,4
2022-12-27T04:40:00.576Z,4
2022-12-27T04:45:00.544Z,4
2022-12-27T04:50:00.562Z,4
2022-12-27T04:55:00.571Z,4
2022-12-27T05:00:00.579Z,3
2022-12-27T05:05:00.542Z,4
2022-12-27T05:10:00.679Z,3
2022-12-27T05:15:00.555Z,3
2022-12-27T05:20:00.575Z,4
2022-12-27T05:25:00.532Z,4
2022-12-27T05:30:00.578Z,5
2022-12-27T05:35:00.542Z,3
2022-12-27T05:40:00.553Z,5
2022-12-27T05:45:00.536Z,4
2022-12-27T05:50:00.581Z,5
2022-12-27T05:55:00.775Z,5
2022-12-27T06:00:00.580Z,5
2022-12-27T06:05:00.567Z,5
2022-12-27T06:10:00.561Z,5
2022-12-27T06:15:00.605Z,5
2022-12-27T06:20:00.576Z,5
2022-12-27T06:25:00.571Z,5
2022-12-27T06:30:00.584Z,5
2022-12-27T06:35:00.556Z,5
2022-12-27T06:40:00.554Z,5
2022-12-27T06:45:00.569Z,5
2022-12-27T06:50:00.576Z,4
2022-12-27T06:55:00.770Z,4
2022-12-27T07:00:00.581Z,5
2022-12-27T07:05:00.542Z,5
2022-12-27T07:10:00.585Z,6
2022-12-27T07:15:00.569Z,6
2022-12-27T07:20:00.578Z,5
2022-12-27T07:25:00.540Z,6
2022-12-27T07:30:00.574Z,5
2022-12-27T07:35:00.544Z,5
2022-12-27T07:40:00.567Z,5
2022-12-27T07:45:00.573Z,6
2022-12-27T07:50:00.582Z,5
2022-12-27T07:55:00.568Z,6
2022-12-27T08:00:00.698Z,5
2022-12-27T08:05:00.564Z,7
2022-12-27T08:10:00.580Z,6
2022-12-27T08:15:00.584Z,6
2022-12-27T08:20:00.559Z,5
2022-12-27T08:25:00.584Z,6
2022-12-27T08:30:00.587Z,6
2022-12-27T08:35:18.201Z,5
2022-12-27T08:40:02.798Z,5
2022-12-27T08:45:00.608Z,5
2022-12-27T08:50:00.588Z,5
2022-12-27T08:55:00.576Z,4
2022-12-27T09:00:00.642Z,5
2022-12-27T09:05:00.591Z,5
2022-12-27T09:10:00.582Z,4
2022-12-27T09:15:00.590Z,5
2022-12-27T09:20:00.594Z,6
2022-12-27T09:25:00.575Z,4
2022-12-27T09:30:00.581Z,5
2022-12-27T09:35:00.601Z,5
2022-12-27T09:40:00.625Z,6
2022-12-27T09:45:00.573Z,5
2022-12-27T09:50:00.582Z,5
2022-12-27T09:55:04.585Z,5
2022-12-27T10:00:00.612Z,6
2022-12-27T10:05:19.545Z,4
2022-12-27T10:10:00.559Z,4
2022-12-27T10:15:00.573Z,5
2022-12-27T10:20:00.579Z,4
2022-12-27T10:25:00.571Z,7
2022-12-27T10:30:00.603Z,6
2022-12-27T10:35:00.582Z,6
2022-12-27T10:40:00.580Z,5
2022-12-27T10:45:00.567Z,7
2022-12-27T10:50:00.596Z,6
2022-12-27T10:55:00.575Z,6
2022-12-27T11:00:00.637Z,6
2022-12-27T11:05:00.613Z,5
2022-12-27T11:10:00.588Z,6
2022-12-27T11:15:00.615Z,4
2022-12-27T11:20:00.579Z,6
2022-12-27T11:25:00.557Z,5
2022-12-27T11:30:00.580Z,5
2022-12-27T11:35:00.571Z,6
2022-12-27T11:40:00.574Z,5
2022-12-27T11:45:00.581Z,5
2022-12-27T11:50:00.555Z,5
2022-12-27T11:55:00.577Z,5
2022-12-27T12:00:00.581Z,5
2022-12-27T12:05:00.557Z,6
2022-12-27T12:10:00.590Z,5
2022-12-27T12:15:00.566Z,4
2022-12-27T12:20:00.574Z,5
2022-12-27T12:25:00.582Z,6
2022-12-27T12:30:00.584Z,6
2022-12-27T12:35:00.549Z,6
2022-12-27T12:40:00.585Z,6
2022-12-27T12:45:00.557Z,6
2022-12-27T12:50:00.576Z,6
2022-12-27T12:55:00.576Z,6
2022-12-27T13:00:00.599Z,6
2022-12-27T13:05:00.614Z,7
2022-12-27T13:10:00.595Z,5
2022-12-27T13:15:00.575Z,5
2022-12-27T13:20:00.585Z,5
2022-12-27T13:25:00.570Z,6
2022-12-27T13:30:06.206Z,6
2022-12-27T13:35:00.585Z,5
2022-12-27T13:40:00.600Z,4
2022-12-27T13:45:00.572Z,6
2022-12-27T13:50:00.591Z,6
2022-12-27T13:55:00.589Z,6
2022-12-27T14:00:00.589Z,8
2022-12-27T14:05:00.581Z,5
2022-12-27T14:10:00.585Z,5
2022-12-27T14:15:00.554Z,4
2022-12-27T14:20:00.575Z,3
2022-12-27T14:25:00.678Z,4
2022-12-27T14:30:06.536Z,5
2022-12-27T14:35:00.572Z,5
2022-12-27T14:40:00.580Z,5
2022-12-27T14:45:00.591Z,4
2022-12-27T14:50:00.605Z,5
2022-12-27T14:55:00.584Z,2
2022-12-27T15:00:00.600Z,2
2022-12-27T15:05:00.568Z,4
2022-12-27T15:10:00.578Z,4
2022-12-27T15:15:00.568Z,4
2022-12-27T15:20:00.614Z,3
2022-12-27T15:25:00.582Z,3
2022-12-27T15:30:00.583Z,4
2022-12-27T15:35:00.540Z,3
2022-12-27T15:40:00.590Z,3
2022-12-27T15:45:00.559Z,3
2022-12-27T15:50:00.577Z,3
2022-12-27T15:55:00.584Z,3
2022-12-27T16:00:00.630Z,4
2022-12-27T16:05:00.582Z,2
2022-12-27T16:10:00.655Z,3
2022-12-27T16:15:00.545Z,3
2022-12-27T16:20:00.584Z,3
2022-12-27T16:25:00.618Z,3
2022-12-27T16:30:00.594Z,2
2022-12-27T16:35:00.585Z,3
2022-12-27T16:40:00.605Z,3
2022-12-27T16:45:00.612Z,3
2022-12-27T16:50:00.589Z,2
2022-12-27T16:55:00.566Z,3
2022-12-27T17:00:00.585Z,2
2022-12-27T17:10:00.589Z,2
2022-12-27T17:15:00.598Z,2
2022-12-27T17:20:00.589Z,3
2022-12-27T17:25:00.571Z,3
2022-12-27T17:30:00.554Z,3
2022-12-27T17:35:00.565Z,3
2022-12-27T17:40:00.572Z,3
2022-12-27T17:45:00.544Z,4
2022-12-27T17:50:00.557Z,4
2022-12-27T17:55:00.550Z,3
2022-12-27T18:00:00.644Z,4
2022-12-27T18:05:00.554Z,2
2022-12-27T18:10:00.603Z,3
2022-12-27T18:15:00.580Z,4
2022-12-27T18:20:00.581Z,3
2022-12-27T18:25:00.549Z,4
2022-12-27T18:30:00.605Z,2
2022-12-27T18:35:00.587Z,3
2022-12-27T18:40:00.679Z,3
2022-12-27T18:45:00.619Z,3
2022-12-27T18:50:00.565Z,3
2022-12-27T18:55:00.602Z,3
2022-12-27T19:00:00.585Z,3
2022-12-27T19:05:00.550Z,3
2022-12-27T19:10:00.595Z,3
2022-12-27T19:15:00.572Z,3
2022-12-27T19:20:00.587Z,2
2022-12-27T19:25:00.573Z,1
2022-12-27T19:30:00.684Z,1
2022-12-27T19:35:00.565Z,1
2022-12-27T19:40:00.586Z,1
2022-12-27T19:45:00.562Z,1
2022-12-27T19:50:00.566Z,1
2022-12-27T19:55:00.573Z,1
2022-12-27T20:00:01.596Z,1
2022-12-27T20:05:00.539Z,1
2022-12-27T20:10:00.578Z,1
2022-12-27T20:15:00.580Z,1
2022-12-27T20:25:00.570Z,2
2022-12-27T20:30:00.599Z,1
2022-12-27T20:35:00.566Z,1
2022-12-27T20:40:00.574Z,1
2022-12-27T20:45:00.538Z,1
2022-12-27T20:55:00.557Z,1
2022-12-27T21:00:00.610Z,1
2022-12-27T21:05:00.557Z,1
2022-12-27T21:10:00.558Z,1
2022-12-27T21:15:00.546Z,1
2022-12-27T21:20:00.612Z,1
2022-12-27T21:25:00.650Z,1
2022-12-27T21:30:00.567Z,1
2022-12-27T21:35:00.582Z,1
2022-12-27T21:40:00.588Z,1
2022-12-27T21:45:00.584Z,1
2022-12-27T21:50:00.579Z,1
2022-12-27T21:55:00.672Z,1
2022-12-27T22:00:00.575Z,1
2022-12-27T22:05:00.577Z,1
2022-12-27T22:15:00.549Z,1
2022-12-27T22:20:00.585Z,1
2022-12-27T22:25:00.541Z,1
2022-12-27T22:35:00.577Z,2
2022-12-27T22:45:00.556Z,0
2022-12-27T22:50:00.584Z,1
2022-12-27T22:55:03.595Z,1
2022-12-27T23:05:00.578Z,2
2022-12-27T23:15:00.674Z,1
2022-12-27T23:20:00.556Z,1
2022-12-27T23:35:00.577Z,3
2022-12-27T23:40:00.575Z,3
2022-12-27T23:45:00.548Z,1
2022-12-27T23:50:00.577Z,1
